sensor_id;sensor_type;location;lat;lon;timestamp;pressure;altitude;pressure_sealevel;temperature;humidity
51195;BME280;37259;49.972;19.850;2022-12-18T00:00:46;100210;;;-4.1;86.4
51195;BME280;37259;49.972;19.850;2022-12-18T00:01:46;100210;;;-4.1;86.4
51195;BME280;37259;49.972;19.850;2022-12-18T00:02:46;100210;;;-4.1;86.4
51195;BME280;37259;49.972;19.850;2022-12-18T00:03:46;100210;;;-4;86.5
51195;BME280;37259;49.972;19.850;2022-12-18T00:04:46;100210;;;-4.1;86.4
51195;BME280;37259;49.972;19.850;2022-12-18T00:05:46;100210;;;-4.1;86.4
51195;BME280;37259;49.972;19.850;2022-12-18T00:06:46;100220;;;-4.1;86.3
51195;BME280;37259;49.972;19.850;2022-12-18T00:07:46;100220;;;-4.1;86.3
51195;BME280;37259;49.972;19.850;2022-12-18T00:08:46;100220;;;-4.1;86.4
51195;BME280;37259;49.972;19.850;2022-12-18T00:09:46;100220;;;-4.1;86.4
51195;BME280;37259;49.972;19.850;2022-12-18T00:10:46;100220;;;-4.1;86.3
51195;BME280;37259;49.972;19.850;2022-12-18T00:11:46;100220;;;-4.1;86.3
51195;BME280;37259;49.972;19.850;2022-12-18T00:12:46;100230;;;-4.1;86.2
51195;BME280;37259;49.972;19.850;2022-12-18T00:13:46;100230;;;-4.1;86.2
51195;BME280;37259;49.972;19.850;2022-12-18T00:14:46;100230;;;-4.1;86.2
51195;BME280;37259;49.972;19.850;2022-12-18T00:15:46;100230;;;-4.1;86.3
51195;BME280;37259;49.972;19.850;2022-12-18T00:16:46;100230;;;-4.1;86.3
51195;BME280;37259;49.972;19.850;2022-12-18T00:17:46;100230;;;-4.1;86.3
51195;BME280;37259;49.972;19.850;2022-12-18T00:18:46;100230;;;-4.2;86.3
51195;BME280;37259;49.972;19.850;2022-12-18T00:19:46;100230;;;-4.2;86.3
51195;BME280;37259;49.972;19.850;2022-12-18T00:20:46;100230;;;-4.2;86.3
51195;BME280;37259;49.972;19.850;2022-12-18T00:21:46;100230;;;-4.2;86.3
51195;BME280;37259;49.972;19.850;2022-12-18T00:22:46;100240;;;-4.2;86.4
51195;BME280;37259;49.972;19.850;2022-12-18T00:23:46;100240;;;-4.2;86.4
51195;BME280;37259;49.972;19.850;2022-12-18T00:24:46;100240;;;-4.2;86.4
51195;BME280;37259;49.972;19.850;2022-12-18T00:25:46;100240;;;-4.2;86.4
51195;BME280;37259;49.972;19.850;2022-12-18T00:26:46;100240;;;-4.2;86.4
51195;BME280;37259;49.972;19.850;2022-12-18T00:27:46;100240;;;-4.1;86.5
51195;BME280;37259;49.972;19.850;2022-12-18T00:28:46;100240;;;-4.2;86.4
51195;BME280;37259;49.972;19.850;2022-12-18T00:29:47;100240;;;-4.2;86.3
51195;BME280;37259;49.972;19.850;2022-12-18T00:30:46;100240;;;-4.1;86.3
51195;BME280;37259;49.972;19.850;2022-12-18T00:31:46;100240;;;-4.1;86.3
51195;BME280;37259;49.972;19.850;2022-12-18T00:32:46;100240;;;-4.1;86.3
51195;BME280;37259;49.972;19.850;2022-12-18T00:33:46;100240;;;-4.1;86.3
51195;BME280;37259;49.972;19.850;2022-12-18T00:34:46;100240;;;-4.1;86.3
51195;BME280;37259;49.972;19.850;2022-12-18T00:35:46;100240;;;-4.1;86.3
51195;BME280;37259;49.972;19.850;2022-12-18T00:36:47;100240;;;-4.1;86.3
51195;BME280;37259;49.972;19.850;2022-12-18T00:37:46;100250;;;-4.1;86.3
51195;BME280;37259;49.972;19.850;2022-12-18T00:38:46;100250;;;-4.1;86.3
51195;BME280;37259;49.972;19.850;2022-12-18T00:39:47;100240;;;-4.2;86.2
51195;BME280;37259;49.972;19.850;2022-12-18T00:40:46;100250;;;-4.1;86.3
51195;BME280;37259;49.972;19.850;2022-12-18T00:41:46;100250;;;-4.1;86.4
51195;BME280;37259;49.972;19.850;2022-12-18T00:43:46;100260;;;-4.1;86.4
51195;BME280;37259;49.972;19.850;2022-12-18T00:44:46;100260;;;-4.1;86.3
51195;BME280;37259;49.972;19.850;2022-12-18T00:45:46;100260;;;-4.1;86.3
51195;BME280;37259;49.972;19.850;2022-12-18T00:46:46;100260;;;-4.1;86.3
51195;BME280;37259;49.972;19.850;2022-12-18T00:47:46;100260;;;-4.1;86.3
51195;BME280;37259;49.972;19.850;2022-12-18T00:48:46;100260;;;-4.1;86.3
51195;BME280;37259;49.972;19.850;2022-12-18T00:49:46;100260;;;-4.1;86.4
51195;BME280;37259;49.972;19.850;2022-12-18T00:50:47;100260;;;-4.1;86.5
51195;BME280;37259;49.972;19.850;2022-12-18T00:51:46;100260;;;-4.1;86.5
51195;BME280;37259;49.972;19.850;2022-12-18T00:52:46;100270;;;-4.1;86.5
51195;BME280;37259;49.972;19.850;2022-12-18T00:53:46;100270;;;-4.1;86.5
51195;BME280;37259;49.972;19.850;2022-12-18T00:54:46;100270;;;-4.1;86.5
51195;BME280;37259;49.972;19.850;2022-12-18T00:55:46;100270;;;-4.1;86.4
51195;BME280;37259;49.972;19.850;2022-12-18T00:56:46;100270;;;-4.1;86.4
51195;BME280;37259;49.972;19.850;2022-12-18T00:57:46;100270;;;-4;86.5
51195;BME280;37259;49.972;19.850;2022-12-18T00:58:46;100270;;;-4;86.5
51195;BME280;37259;49.972;19.850;2022-12-18T00:59:46;100270;;;-4;86.5
51195;BME280;37259;49.972;19.850;2022-12-18T01:00:46;100270;;;-4;86.5
51195;BME280;37259;49.972;19.850;2022-12-18T01:01:46;100270;;;-4;86.5
51195;BME280;37259;49.972;19.850;2022-12-18T01:02:46;100270;;;-4;86.4
51195;BME280;37259;49.972;19.850;2022-12-18T01:03:46;100270;;;-4;86.4
51195;BME280;37259;49.972;19.850;2022-12-18T01:04:46;100280;;;-4;86.4
51195;BME280;37259;49.972;19.850;2022-12-18T01:05:46;100280;;;-4;86.4
51195;BME280;37259;49.972;19.850;2022-12-18T01:06:46;100280;;;-4;86.2
51195;BME280;37259;49.972;19.850;2022-12-18T01:07:46;100280;;;-4;86.2
51195;BME280;37259;49.972;19.850;2022-12-18T01:08:46;100280;;;-4;86
51195;BME280;37259;49.972;19.850;2022-12-18T01:09:46;100280;;;-4;86
51195;BME280;37259;49.972;19.850;2022-12-18T01:10:46;100290;;;-4.1;86
51195;BME280;37259;49.972;19.850;2022-12-18T01:11:46;100280;;;-4;86
51195;BME280;37259;49.972;19.850;2022-12-18T01:12:46;100280;;;-4;86
51195;BME280;37259;49.972;19.850;2022-12-18T01:13:46;100280;;;-4;86.2
51195;BME280;37259;49.972;19.850;2022-12-18T01:14:46;100280;;;-4;86.2
51195;BME280;37259;49.972;19.850;2022-12-18T01:15:47;100290;;;-4;86.1
51195;BME280;37259;49.972;19.850;2022-12-18T01:16:46;100290;;;-4;86.2
51195;BME280;37259;49.972;19.850;2022-12-18T01:17:46;100290;;;-4;86.2
51195;BME280;37259;49.972;19.850;2022-12-18T01:18:46;100300;;;-4;86
51195;BME280;37259;49.972;19.850;2022-12-18T01:19:46;100300;;;-4;86
51195;BME280;37259;49.972;19.850;2022-12-18T01:20:46;100300;;;-4;86.1
51195;BME280;37259;49.972;19.850;2022-12-18T01:21:46;100300;;;-4;86.1
51195;BME280;37259;49.972;19.850;2022-12-18T01:22:46;100310;;;-4.1;86
51195;BME280;37259;49.972;19.850;2022-12-18T01:23:46;100300;;;-4.1;86
51195;BME280;37259;49.972;19.850;2022-12-18T01:24:46;100300;;;-4;86.1
51195;BME280;37259;49.972;19.850;2022-12-18T01:25:46;100310;;;-4;86.2
51195;BME280;37259;49.972;19.850;2022-12-18T01:26:46;100300;;;-4;86.2
51195;BME280;37259;49.972;19.850;2022-12-18T01:27:46;100300;;;-4.1;86.1
51195;BME280;37259;49.972;19.850;2022-12-18T01:28:46;100300;;;-4.1;86.1
51195;BME280;37259;49.972;19.850;2022-12-18T01:29:46;100310;;;-4.1;86.1
51195;BME280;37259;49.972;19.850;2022-12-18T01:30:46;100310;;;-4.1;86.2
51195;BME280;37259;49.972;19.850;2022-12-18T01:31:46;100310;;;-4;86.2
51195;BME280;37259;49.972;19.850;2022-12-18T01:32:46;100310;;;-4;86.2
51195;BME280;37259;49.972;19.850;2022-12-18T01:33:47;100310;;;-4;86.2
51195;BME280;37259;49.972;19.850;2022-12-18T01:34:46;100310;;;-4.1;86.2
51195;BME280;37259;49.972;19.850;2022-12-18T01:35:46;100310;;;-4.1;86.2
51195;BME280;37259;49.972;19.850;2022-12-18T01:36:46;100310;;;-4;86.2
51195;BME280;37259;49.972;19.850;2022-12-18T01:37:46;100320;;;-4;86.3
51195;BME280;37259;49.972;19.850;2022-12-18T01:38:46;100310;;;-4;86.3
51195;BME280;37259;49.972;19.850;2022-12-18T01:39:46;100310;;;-4;86.3
51195;BME280;37259;49.972;19.850;2022-12-18T01:40:46;100320;;;-4;86.2
51195;BME280;37259;49.972;19.850;2022-12-18T01:41:46;100320;;;-4;86.2
51195;BME280;37259;49.972;19.850;2022-12-18T01:42:49;100320;;;-4;86.1
51195;BME280;37259;49.972;19.850;2022-12-18T01:43:47;100320;;;-4;86.1
51195;BME280;37259;49.972;19.850;2022-12-18T01:45:46;100320;;;-4;86.1
51195;BME280;37259;49.972;19.850;2022-12-18T01:45:50;100320;;;-4;86.1
51195;BME280;37259;49.972;19.850;2022-12-18T01:46:46;100320;;;-4;86.1
51195;BME280;37259;49.972;19.850;2022-12-18T01:47:46;100320;;;-4;86
51195;BME280;37259;49.972;19.850;2022-12-18T01:48:47;100320;;;-4;86.1
51195;BME280;37259;49.972;19.850;2022-12-18T01:49:46;100330;;;-4;86.1
51195;BME280;37259;49.972;19.850;2022-12-18T01:50:46;100330;;;-4;86.1
51195;BME280;37259;49.972;19.850;2022-12-18T01:51:46;100320;;;-4;86.1
51195;BME280;37259;49.972;19.850;2022-12-18T01:52:47;100320;;;-4;86.1
51195;BME280;37259;49.972;19.850;2022-12-18T01:53:46;100320;;;-4;86
51195;BME280;37259;49.972;19.850;2022-12-18T01:54:46;100320;;;-4;85.9
51195;BME280;37259;49.972;19.850;2022-12-18T01:55:46;100320;;;-4.1;85.9
51195;BME280;37259;49.972;19.850;2022-12-18T01:56:46;100320;;;-4;86
51195;BME280;37259;49.972;19.850;2022-12-18T01:57:46;100330;;;-4;86
51195;BME280;37259;49.972;19.850;2022-12-18T01:58:48;100330;;;-4;86
51195;BME280;37259;49.972;19.850;2022-12-18T01:59:47;100330;;;-4;86.1
51195;BME280;37259;49.972;19.850;2022-12-18T02:00:46;100330;;;-4;86.2
51195;BME280;37259;49.972;19.850;2022-12-18T02:01:46;100330;;;-4;86.2
51195;BME280;37259;49.972;19.850;2022-12-18T02:02:46;100330;;;-3.9;86.2
51195;BME280;37259;49.972;19.850;2022-12-18T02:03:46;100330;;;-3.9;86.2
51195;BME280;37259;49.972;19.850;2022-12-18T02:04:46;100330;;;-3.9;86.3
51195;BME280;37259;49.972;19.850;2022-12-18T02:05:47;100330;;;-3.9;86.3
51195;BME280;37259;49.972;19.850;2022-12-18T02:06:46;100340;;;-3.9;86.2
51195;BME280;37259;49.972;19.850;2022-12-18T02:07:49;100340;;;-3.9;86.2
51195;BME280;37259;49.972;19.850;2022-12-18T02:08:48;100340;;;-3.9;86.1
51195;BME280;37259;49.972;19.850;2022-12-18T02:09:46;100340;;;-3.9;86.1
51195;BME280;37259;49.972;19.850;2022-12-18T02:10:47;100340;;;-3.9;86.2
51195;BME280;37259;49.972;19.850;2022-12-18T02:11:48;100340;;;-3.9;86.2
51195;BME280;37259;49.972;19.850;2022-12-18T02:12:48;100340;;;-3.9;86.1
51195;BME280;37259;49.972;19.850;2022-12-18T02:13:48;100340;;;-3.9;86.1
51195;BME280;37259;49.972;19.850;2022-12-18T02:14:49;100350;;;-3.9;86
51195;BME280;37259;49.972;19.850;2022-12-18T02:15:48;100350;;;-3.9;86
51195;BME280;37259;49.972;19.850;2022-12-18T02:16:48;100350;;;-3.9;85.9
51195;BME280;37259;49.972;19.850;2022-12-18T02:17:47;100350;;;-3.9;85.9
51195;BME280;37259;49.972;19.850;2022-12-18T02:18:47;100350;;;-3.9;85.9
51195;BME280;37259;49.972;19.850;2022-12-18T02:19:48;100360;;;-3.9;85.8
51195;BME280;37259;49.972;19.850;2022-12-18T02:20:47;100360;;;-3.9;85.8
51195;BME280;37259;49.972;19.850;2022-12-18T02:21:49;100360;;;-3.9;86
51195;BME280;37259;49.972;19.850;2022-12-18T02:22:50;100360;;;-3.9;86
51195;BME280;37259;49.972;19.850;2022-12-18T02:23:47;100360;;;-3.9;85.9
51195;BME280;37259;49.972;19.850;2022-12-18T02:24:48;100360;;;-3.9;85.9
51195;BME280;37259;49.972;19.850;2022-12-18T02:25:58;100370;;;-3.9;85.9
51195;BME280;37259;49.972;19.850;2022-12-18T02:26:46;100370;;;-3.9;85.9
51195;BME280;37259;49.972;19.850;2022-12-18T02:27:46;100370;;;-3.9;85.8
51195;BME280;37259;49.972;19.850;2022-12-18T02:28:47;100370;;;-3.9;85.8
51195;BME280;37259;49.972;19.850;2022-12-18T02:29:47;100370;;;-3.9;85.8
51195;BME280;37259;49.972;19.850;2022-12-18T02:30:47;100370;;;-3.9;85.8
51195;BME280;37259;49.972;19.850;2022-12-18T02:31:47;100370;;;-3.9;85.8
51195;BME280;37259;49.972;19.850;2022-12-18T02:32:47;100380;;;-3.9;85.8
51195;BME280;37259;49.972;19.850;2022-12-18T02:33:46;100380;;;-3.9;85.9
51195;BME280;37259;49.972;19.850;2022-12-18T02:34:46;100380;;;-3.9;85.9
51195;BME280;37259;49.972;19.850;2022-12-18T02:35:46;100380;;;-3.9;85.8
51195;BME280;37259;49.972;19.850;2022-12-18T02:36:46;100380;;;-3.9;85.8
51195;BME280;37259;49.972;19.850;2022-12-18T02:37:46;100380;;;-3.9;85.8
51195;BME280;37259;49.972;19.850;2022-12-18T02:38:46;100380;;;-3.9;85.8
51195;BME280;37259;49.972;19.850;2022-12-18T02:39:46;100380;;;-4;85.8
51195;BME280;37259;49.972;19.850;2022-12-18T02:40:46;100370;;;-4;85.4
51195;BME280;37259;49.972;19.850;2022-12-18T02:41:46;100370;;;-4;85.4
51195;BME280;37259;49.972;19.850;2022-12-18T02:42:46;100370;;;-4;85.6
51195;BME280;37259;49.972;19.850;2022-12-18T02:43:47;100370;;;-4;85.7
51195;BME280;37259;49.972;19.850;2022-12-18T02:44:47;100370;;;-4;85.8
51195;BME280;37259;49.972;19.850;2022-12-18T02:45:46;100370;;;-4;85.8
51195;BME280;37259;49.972;19.850;2022-12-18T02:46:48;100380;;;-4;85.8
51195;BME280;37259;49.972;19.850;2022-12-18T02:47:47;100380;;;-3.9;85.9
51195;BME280;37259;49.972;19.850;2022-12-18T02:48:46;100380;;;-3.9;85.9
51195;BME280;37259;49.972;19.850;2022-12-18T02:49:49;100380;;;-3.9;85.7
51195;BME280;37259;49.972;19.850;2022-12-18T02:50:48;100390;;;-3.9;85.8
51195;BME280;37259;49.972;19.850;2022-12-18T02:51:48;100390;;;-3.9;85.8
51195;BME280;37259;49.972;19.850;2022-12-18T02:52:49;100390;;;-4;85.7
51195;BME280;37259;49.972;19.850;2022-12-18T02:53:48;100390;;;-4;85.7
51195;BME280;37259;49.972;19.850;2022-12-18T02:54:50;100400;;;-3.9;85.8
51195;BME280;37259;49.972;19.850;2022-12-18T02:55:51;100400;;;-4;85.8
51195;BME280;37259;49.972;19.850;2022-12-18T02:56:48;100400;;;-4;85.6
51195;BME280;37259;49.972;19.850;2022-12-18T02:57:47;100400;;;-4;85.6
51195;BME280;37259;49.972;19.850;2022-12-18T02:58:47;100400;;;-4;85.6
51195;BME280;37259;49.972;19.850;2022-12-18T02:59:48;100400;;;-4;85.7
51195;BME280;37259;49.972;19.850;2022-12-18T03:00:48;100400;;;-4;85.8
51195;BME280;37259;49.972;19.850;2022-12-18T03:01:47;100400;;;-4;85.8
51195;BME280;37259;49.972;19.850;2022-12-18T03:02:47;100400;;;-4;85.7
51195;BME280;37259;49.972;19.850;2022-12-18T03:03:46;100400;;;-4;85.7
51195;BME280;37259;49.972;19.850;2022-12-18T03:04:47;100400;;;-4;85.7
51195;BME280;37259;49.972;19.850;2022-12-18T03:05:47;100400;;;-4;85.7
51195;BME280;37259;49.972;19.850;2022-12-18T03:06:47;100400;;;-4;85.6
51195;BME280;37259;49.972;19.850;2022-12-18T03:07:47;100400;;;-4;85.5
51195;BME280;37259;49.972;19.850;2022-12-18T03:08:46;100400;;;-4;85.5
51195;BME280;37259;49.972;19.850;2022-12-18T03:09:47;100400;;;-4;85.6
51195;BME280;37259;49.972;19.850;2022-12-18T03:10:48;100400;;;-4;85.6
51195;BME280;37259;49.972;19.850;2022-12-18T03:11:46;100400;;;-4;85.7
51195;BME280;37259;49.972;19.850;2022-12-18T03:12:47;100400;;;-4;85.7
51195;BME280;37259;49.972;19.850;2022-12-18T03:13:46;100410;;;-4;85.6
51195;BME280;37259;49.972;19.850;2022-12-18T03:14:46;100410;;;-4;85.6
51195;BME280;37259;49.972;19.850;2022-12-18T03:15:47;100410;;;-4;85.7
51195;BME280;37259;49.972;19.850;2022-12-18T03:16:46;100410;;;-4;85.7
51195;BME280;37259;49.972;19.850;2022-12-18T03:17:48;100410;;;-4;85.7
51195;BME280;37259;49.972;19.850;2022-12-18T03:18:47;100410;;;-4;85.7
51195;BME280;37259;49.972;19.850;2022-12-18T03:19:46;100410;;;-4;85.6
51195;BME280;37259;49.972;19.850;2022-12-18T03:20:46;100410;;;-4;85.6
51195;BME280;37259;49.972;19.850;2022-12-18T03:21:47;100410;;;-4;85.6
51195;BME280;37259;49.972;19.850;2022-12-18T03:22:46;100420;;;-4;85.8
51195;BME280;37259;49.972;19.850;2022-12-18T03:23:47;100420;;;-4;85.8
51195;BME280;37259;49.972;19.850;2022-12-18T03:24:46;100420;;;-4;85.7
51195;BME280;37259;49.972;19.850;2022-12-18T03:25:46;100420;;;-4;85.7
51195;BME280;37259;49.972;19.850;2022-12-18T03:26:47;100420;;;-4;85.7
51195;BME280;37259;49.972;19.850;2022-12-18T03:27:47;100420;;;-4;85.7
51195;BME280;37259;49.972;19.850;2022-12-18T03:28:47;100420;;;-3.9;85.8
51195;BME280;37259;49.972;19.850;2022-12-18T03:29:47;100420;;;-3.9;85.8
51195;BME280;37259;49.972;19.850;2022-12-18T03:30:46;100420;;;-4;85.6
51195;BME280;37259;49.972;19.850;2022-12-18T03:31:47;100420;;;-4.1;85.5
51195;BME280;37259;49.972;19.850;2022-12-18T03:32:47;100420;;;-4.1;85.5
51195;BME280;37259;49.972;19.850;2022-12-18T03:33:47;100420;;;-4;85.7
51195;BME280;37259;49.972;19.850;2022-12-18T03:34:46;100420;;;-4;85.6
51195;BME280;37259;49.972;19.850;2022-12-18T03:35:46;100420;;;-4;85.6
51195;BME280;37259;49.972;19.850;2022-12-18T03:36:46;100430;;;-4;85.6
51195;BME280;37259;49.972;19.850;2022-12-18T03:37:46;100430;;;-4;85.6
51195;BME280;37259;49.972;19.850;2022-12-18T03:38:46;100430;;;-4;85.6
51195;BME280;37259;49.972;19.850;2022-12-18T03:39:46;100430;;;-3.9;85.6
51195;BME280;37259;49.972;19.850;2022-12-18T03:40:50;100430;;;-3.9;85.6
51195;BME280;37259;49.972;19.850;2022-12-18T03:41:47;100430;;;-3.9;85.7
51195;BME280;37259;49.972;19.850;2022-12-18T03:42:46;100440;;;-3.9;85.8
51195;BME280;37259;49.972;19.850;2022-12-18T03:43:48;100440;;;-3.9;85.8
51195;BME280;37259;49.972;19.850;2022-12-18T03:44:48;100440;;;-3.9;85.9
51195;BME280;37259;49.972;19.850;2022-12-18T03:45:48;100440;;;-3.9;85.9
51195;BME280;37259;49.972;19.850;2022-12-18T03:46:47;100440;;;-3.9;85.7
51195;BME280;37259;49.972;19.850;2022-12-18T03:47:47;100440;;;-3.9;85.5
51195;BME280;37259;49.972;19.850;2022-12-18T03:48:46;100440;;;-3.9;85.5
51195;BME280;37259;49.972;19.850;2022-12-18T03:49:47;100440;;;-3.9;85.4
51195;BME280;37259;49.972;19.850;2022-12-18T03:50:46;100450;;;-3.9;85.4
51195;BME280;37259;49.972;19.850;2022-12-18T03:51:47;100450;;;-3.9;85.4
51195;BME280;37259;49.972;19.850;2022-12-18T03:52:48;100450;;;-4;85.4
51195;BME280;37259;49.972;19.850;2022-12-18T03:53:47;100450;;;-3.9;85.4
51195;BME280;37259;49.972;19.850;2022-12-18T03:54:46;100450;;;-3.9;85.5
51195;BME280;37259;49.972;19.850;2022-12-18T03:55:46;100450;;;-3.9;85.5
51195;BME280;37259;49.972;19.850;2022-12-18T03:56:46;100450;;;-3.9;85.6
51195;BME280;37259;49.972;19.850;2022-12-18T03:57:46;100450;;;-3.9;85.6
51195;BME280;37259;49.972;19.850;2022-12-18T03:58:46;100450;;;-3.9;85.6
51195;BME280;37259;49.972;19.850;2022-12-18T03:59:47;100450;;;-3.9;85.6
51195;BME280;37259;49.972;19.850;2022-12-18T04:00:46;100460;;;-3.9;85.6
51195;BME280;37259;49.972;19.850;2022-12-18T04:01:47;100460;;;-3.9;85.6
51195;BME280;37259;49.972;19.850;2022-12-18T04:02:47;100460;;;-3.9;85.7
51195;BME280;37259;49.972;19.850;2022-12-18T04:03:46;100460;;;-3.9;85.7
51195;BME280;37259;49.972;19.850;2022-12-18T04:04:46;100460;;;-3.9;85.7
51195;BME280;37259;49.972;19.850;2022-12-18T04:05:46;100460;;;-3.9;85.6
51195;BME280;37259;49.972;19.850;2022-12-18T04:06:46;100460;;;-3.9;85.6
51195;BME280;37259;49.972;19.850;2022-12-18T04:07:46;100460;;;-3.9;85.7
51195;BME280;37259;49.972;19.850;2022-12-18T04:08:46;100460;;;-3.9;85.7
51195;BME280;37259;49.972;19.850;2022-12-18T04:09:47;100460;;;-3.9;85.7
51195;BME280;37259;49.972;19.850;2022-12-18T04:10:46;100460;;;-3.9;85.7
51195;BME280;37259;49.972;19.850;2022-12-18T04:11:46;100460;;;-3.9;85.7
51195;BME280;37259;49.972;19.850;2022-12-18T04:12:46;100460;;;-3.9;85.7
51195;BME280;37259;49.972;19.850;2022-12-18T04:13:46;100470;;;-3.9;85.5
51195;BME280;37259;49.972;19.850;2022-12-18T04:14:46;100470;;;-3.9;85.5
51195;BME280;37259;49.972;19.850;2022-12-18T04:15:46;100470;;;-3.9;85.1
51195;BME280;37259;49.972;19.850;2022-12-18T04:16:46;100470;;;-3.9;85.1
51195;BME280;37259;49.972;19.850;2022-12-18T04:17:46;100470;;;-3.9;85.1
51195;BME280;37259;49.972;19.850;2022-12-18T04:18:46;100470;;;-3.9;85.1
51195;BME280;37259;49.972;19.850;2022-12-18T04:19:46;100480;;;-4;85.1
51195;BME280;37259;49.972;19.850;2022-12-18T04:20:46;100480;;;-4;85.1
51195;BME280;37259;49.972;19.850;2022-12-18T04:21:46;100480;;;-4;85.1
51195;BME280;37259;49.972;19.850;2022-12-18T04:22:46;100480;;;-4;85.3
51195;BME280;37259;49.972;19.850;2022-12-18T04:23:46;100480;;;-3.9;85.3
51195;BME280;37259;49.972;19.850;2022-12-18T04:24:46;100480;;;-3.9;85.4
51195;BME280;37259;49.972;19.850;2022-12-18T04:25:46;100480;;;-3.9;85.4
51195;BME280;37259;49.972;19.850;2022-12-18T04:26:46;100480;;;-3.9;85.4
51195;BME280;37259;49.972;19.850;2022-12-18T04:27:46;100480;;;-3.9;85.4
51195;BME280;37259;49.972;19.850;2022-12-18T04:28:46;100490;;;-3.9;85.4
51195;BME280;37259;49.972;19.850;2022-12-18T04:29:46;100490;;;-3.9;85.4
51195;BME280;37259;49.972;19.850;2022-12-18T04:30:46;100490;;;-4;85.4
51195;BME280;37259;49.972;19.850;2022-12-18T04:31:46;100490;;;-4;85.4
51195;BME280;37259;49.972;19.850;2022-12-18T04:32:46;100490;;;-4;85.4
51195;BME280;37259;49.972;19.850;2022-12-18T04:33:46;100490;;;-3.9;85.4
51195;BME280;37259;49.972;19.850;2022-12-18T04:34:46;100490;;;-3.9;85.4
51195;BME280;37259;49.972;19.850;2022-12-18T04:35:46;100490;;;-3.9;85.5
51195;BME280;37259;49.972;19.850;2022-12-18T04:36:46;100490;;;-4;85.4
51195;BME280;37259;49.972;19.850;2022-12-18T04:37:46;100490;;;-4;85.4
51195;BME280;37259;49.972;19.850;2022-12-18T04:38:46;100490;;;-4;85.5
51195;BME280;37259;49.972;19.850;2022-12-18T04:39:46;100490;;;-4;85.5
51195;BME280;37259;49.972;19.850;2022-12-18T04:40:46;100500;;;-4;85.5
51195;BME280;37259;49.972;19.850;2022-12-18T04:41:46;100500;;;-4;85.5
51195;BME280;37259;49.972;19.850;2022-12-18T04:42:46;100490;;;-4.1;85.3
51195;BME280;37259;49.972;19.850;2022-12-18T04:43:46;100500;;;-4.1;85.3
51195;BME280;37259;49.972;19.850;2022-12-18T04:44:46;100500;;;-4.1;85.3
51195;BME280;37259;49.972;19.850;2022-12-18T04:45:46;100500;;;-4.1;85.4
51195;BME280;37259;49.972;19.850;2022-12-18T04:46:46;100510;;;-4.2;85.4
51195;BME280;37259;49.972;19.850;2022-12-18T04:47:46;100510;;;-4.2;85.4
51195;BME280;37259;49.972;19.850;2022-12-18T04:48:46;100510;;;-4.1;85.5
51195;BME280;37259;49.972;19.850;2022-12-18T04:49:46;100510;;;-4.1;85.5
51195;BME280;37259;49.972;19.850;2022-12-18T04:50:46;100510;;;-4.1;85.6
51195;BME280;37259;49.972;19.850;2022-12-18T04:51:46;100510;;;-4.1;85.6
51195;BME280;37259;49.972;19.850;2022-12-18T04:52:46;100510;;;-4.1;85.6
51195;BME280;37259;49.972;19.850;2022-12-18T04:53:46;100510;;;-4.1;85.6
51195;BME280;37259;49.972;19.850;2022-12-18T04:54:46;100510;;;-4.1;85.6
51195;BME280;37259;49.972;19.850;2022-12-18T04:55:46;100510;;;-4.1;85.6
51195;BME280;37259;49.972;19.850;2022-12-18T04:56:46;100510;;;-4.1;85.6
51195;BME280;37259;49.972;19.850;2022-12-18T04:57:46;100520;;;-4.3;85.7
51195;BME280;37259;49.972;19.850;2022-12-18T04:58:46;100520;;;-4.3;85.7
51195;BME280;37259;49.972;19.850;2022-12-18T04:59:46;100520;;;-4.3;85.8
51195;BME280;37259;49.972;19.850;2022-12-18T05:00:46;100520;;;-4.3;85.8
51195;BME280;37259;49.972;19.850;2022-12-18T05:01:46;100520;;;-4.3;85.9
51195;BME280;37259;49.972;19.850;2022-12-18T05:02:46;100520;;;-4.3;85.9
51195;BME280;37259;49.972;19.850;2022-12-18T05:03:46;100520;;;-4.2;85.9
51195;BME280;37259;49.972;19.850;2022-12-18T05:04:46;100520;;;-4.2;85.9
51195;BME280;37259;49.972;19.850;2022-12-18T05:05:48;100520;;;-4.3;85.9
51195;BME280;37259;49.972;19.850;2022-12-18T05:06:46;100520;;;-4.2;85.9
51195;BME280;37259;49.972;19.850;2022-12-18T05:07:46;100520;;;-4.2;85.9
51195;BME280;37259;49.972;19.850;2022-12-18T05:08:46;100520;;;-4.2;85.9
51195;BME280;37259;49.972;19.850;2022-12-18T05:09:46;100520;;;-4.3;85.8
51195;BME280;37259;49.972;19.850;2022-12-18T05:10:46;100520;;;-4.3;85.8
51195;BME280;37259;49.972;19.850;2022-12-18T05:11:46;100520;;;-4.3;85.8
51195;BME280;37259;49.972;19.850;2022-12-18T05:12:46;100520;;;-4.3;85.9
51195;BME280;37259;49.972;19.850;2022-12-18T05:13:46;100520;;;-4.3;85.9
51195;BME280;37259;49.972;19.850;2022-12-18T05:14:46;100520;;;-4.3;85.9
51195;BME280;37259;49.972;19.850;2022-12-18T05:15:50;100520;;;-4.2;85.9
51195;BME280;37259;49.972;19.850;2022-12-18T05:16:46;100520;;;-4.3;85.9
51195;BME280;37259;49.972;19.850;2022-12-18T05:17:46;100520;;;-4.3;85.9
51195;BME280;37259;49.972;19.850;2022-12-18T05:18:46;100530;;;-4.3;85.9
51195;BME280;37259;49.972;19.850;2022-12-18T05:19:46;100530;;;-4.3;85.9
51195;BME280;37259;49.972;19.850;2022-12-18T05:20:46;100530;;;-4.3;85.9
51195;BME280;37259;49.972;19.850;2022-12-18T05:21:46;100530;;;-4.3;86
51195;BME280;37259;49.972;19.850;2022-12-18T05:22:46;100530;;;-4.3;86
51195;BME280;37259;49.972;19.850;2022-12-18T05:23:46;100530;;;-4.2;86
51195;BME280;37259;49.972;19.850;2022-12-18T05:24:46;100530;;;-4.2;86
51195;BME280;37259;49.972;19.850;2022-12-18T05:25:47;100530;;;-4.2;85.9
51195;BME280;37259;49.972;19.850;2022-12-18T05:26:46;100530;;;-4.2;85.9
51195;BME280;37259;49.972;19.850;2022-12-18T05:27:46;100530;;;-4.2;85.9
51195;BME280;37259;49.972;19.850;2022-12-18T05:28:46;100530;;;-4.2;85.9
51195;BME280;37259;49.972;19.850;2022-12-18T05:29:46;100530;;;-4.2;85.9
51195;BME280;37259;49.972;19.850;2022-12-18T05:30:47;100530;;;-4.2;85.9
51195;BME280;37259;49.972;19.850;2022-12-18T05:31:46;100540;;;-4.2;85.8
51195;BME280;37259;49.972;19.850;2022-12-18T05:32:46;100540;;;-4.2;85.8
51195;BME280;37259;49.972;19.850;2022-12-18T05:33:48;100540;;;-4.2;85.8
51195;BME280;37259;49.972;19.850;2022-12-18T05:34:46;100540;;;-4.2;85.9
51195;BME280;37259;49.972;19.850;2022-12-18T05:35:49;100540;;;-4.2;85.9